createdAt,value
2023-02-01T09:22:56.887Z,4.10
2023-02-01T09:25:23.645Z,4.20
2023-02-01T09:27:50.408Z,4.30
2023-02-01T09:30:17.293Z,4.40
2023-02-01T09:32:43.933Z,4.60
2023-02-01T09:35:10.603Z,4.80
2023-02-01T09:37:38.517Z,4.90
2023-02-01T09:40:06.002Z,4.70
2023-02-01T09:43:09.850Z,4.60
2023-02-01T09:45:57.324Z,4.70
2023-02-01T09:48:31.803Z,4.60
2023-02-01T09:51:00.707Z,4.70
2023-02-01T09:53:38.702Z,4.60
2023-02-01T09:56:24.392Z,4.50
2023-02-01T09:59:25.716Z,4.50
2023-02-01T10:01:52.626Z,4.20
2023-02-01T10:04:19.526Z,4.30
2023-02-01T10:07:08.436Z,4.30
2023-02-01T10:10:00.455Z,4.40
2023-02-01T10:12:36.016Z,4.50
2023-02-01T10:15:21.018Z,4.50
2023-02-01T10:18:09.517Z,4.70
2023-02-01T10:20:59.913Z,4.70
2023-02-01T10:23:34.706Z,4.60
2023-02-01T10:26:06.903Z,4.70
2023-02-01T10:28:37.588Z,4.70
2023-02-01T10:31:04.762Z,4.60
2023-02-01T10:33:35.903Z,4.60
2023-02-01T10:36:23.056Z,4.50
2023-02-01T10:38:50.585Z,4.40
2023-02-01T10:41:22.051Z,4.40
2023-02-01T10:43:54.163Z,4.60
2023-02-01T10:46:21.644Z,4.60
2023-02-01T10:48:49.578Z,4.70
2023-02-01T10:51:23.595Z,4.90
2023-02-01T10:54:21.348Z,4.90
2023-02-01T10:56:49.352Z,5.00
2023-02-01T10:59:24.377Z,5.10
2023-02-01T11:01:59.739Z,5.20
2023-02-01T11:04:27.599Z,5.20
2023-02-01T11:07:08.551Z,5.20
2023-02-01T11:09:42.668Z,5.20
2023-02-01T11:12:30.368Z,5.10
2023-02-01T11:15:19.407Z,5.20
2023-02-01T11:17:48.413Z,5.20
2023-02-01T11:20:33.451Z,5.30
2023-02-01T11:23:00.688Z,5.20
2023-02-01T11:25:27.639Z,5.30
2023-02-01T11:27:56.999Z,5.30
2023-02-01T11:30:34.450Z,5.30
2023-02-01T11:33:04.061Z,5.30
2023-02-01T11:35:32.907Z,5.40
2023-02-01T11:38:00.497Z,5.30
2023-02-01T11:40:34.827Z,5.10
2023-02-01T11:43:28.383Z,5.20
2023-02-01T11:46:17.447Z,5.20
2023-02-01T11:48:44.495Z,5.30
2023-02-01T11:51:24.230Z,5.30
2023-02-01T11:54:08.802Z,5.40
2023-02-01T11:56:44.902Z,5.50
2023-02-01T11:59:56.336Z,5.70
2023-02-01T12:03:00.712Z,5.70
2023-02-01T12:05:58.477Z,5.80
2023-02-01T12:08:54.633Z,5.80
2023-02-01T12:11:39.781Z,5.60
2023-02-01T12:14:25.544Z,5.30
2023-02-01T12:17:38.082Z,5.10
2023-02-01T12:20:26.291Z,5.00
2023-02-01T12:23:21.178Z,5.00
2023-02-01T12:26:00.828Z,5.20
2023-02-01T12:28:42.366Z,5.10
2023-02-01T12:31:34.581Z,5.00
2023-02-01T12:34:23.020Z,4.80
2023-02-01T12:37:04.899Z,4.70
2023-02-01T12:39:39.454Z,4.70
2023-02-01T12:42:31.951Z,4.70
2023-02-01T12:45:24.875Z,4.70
2023-02-01T12:48:23.063Z,4.70
2023-02-01T12:51:00.596Z,4.70
2023-02-01T12:53:39.313Z,5.00
2023-02-01T12:56:12.246Z,5.10
2023-02-01T12:58:55.743Z,5.10
2023-02-01T13:01:38.421Z,4.90
2023-02-01T13:05:41.268Z,4.80
2023-02-01T13:08:13.867Z,4.70
2023-02-01T13:10:55.443Z,4.70
2023-02-01T13:13:28.180Z,4.70
2023-02-01T13:16:19.139Z,4.60
2023-02-01T13:18:50.700Z,4.50
2023-02-01T13:21:24.882Z,4.50
2023-02-01T13:23:53.156Z,4.40
2023-02-01T13:26:19.961Z,4.10
2023-02-01T13:29:04.075Z,4.10
2023-02-01T13:32:18.200Z,4.20
2023-02-01T13:35:20.469Z,4.20
2023-02-01T13:38:19.777Z,4.20
2023-02-01T13:40:56.954Z,4.20
2023-02-01T13:43:27.379Z,4.20
2023-02-01T13:45:58.095Z,4.10
2023-02-01T13:48:37.099Z,4.10
2023-02-01T13:51:04.060Z,4.20
2023-02-01T13:53:34.626Z,4.40
2023-02-01T13:56:07.102Z,4.60
2023-02-01T13:58:39.456Z,4.50
2023-02-01T14:01:21.455Z,4.50
2023-02-01T14:03:52.370Z,4.50
2023-02-01T14:06:28.220Z,4.40
2023-02-01T14:09:19.081Z,4.50
2023-02-01T14:11:53.429Z,4.60
2023-02-01T14:14:40.459Z,4.80
2023-02-01T14:17:10.019Z,4.80
2023-02-01T14:19:37.215Z,4.70
2023-02-01T14:22:15.896Z,4.60
2023-02-01T14:24:51.195Z,4.50
2023-02-01T14:27:21.971Z,4.40
2023-02-01T14:29:58.958Z,4.30
2023-02-01T14:32:31.224Z,4.30
2023-02-01T14:35:01.411Z,4.40
2023-02-01T14:37:32.551Z,4.30
2023-02-01T14:40:27.586Z,4.20
2023-02-01T14:42:55.481Z,4.30
2023-02-01T14:45:26.118Z,4.40
2023-02-01T14:48:05.999Z,4.40
2023-02-01T14:50:38.533Z,4.40
2023-02-01T14:53:11.622Z,4.40
2023-02-01T14:55:46.226Z,4.50
2023-02-01T14:58:45.196Z,4.40
2023-02-01T15:01:31.639Z,4.40
2023-02-01T15:04:07.589Z,4.40
2023-02-01T15:06:38.375Z,4.50
2023-02-01T15:09:05.140Z,4.60
2023-02-01T15:11:32.151Z,4.60
2023-02-01T15:14:00.899Z,4.60
2023-02-01T15:16:27.831Z,4.60
2023-02-01T15:19:11.492Z,4.60
2023-02-01T15:21:50.380Z,4.50
2023-02-01T15:24:35.232Z,4.40
2023-02-01T15:27:07.336Z,4.30
2023-02-01T15:29:34.417Z,4.20
2023-02-01T15:32:01.883Z,4.30
2023-02-01T15:34:49.810Z,4.20
2023-02-01T15:37:19.422Z,4.10
2023-02-01T15:40:24.983Z,4.10
2023-02-01T15:43:00.040Z,4.00
2023-02-01T15:45:29.728Z,4.00
2023-02-01T15:47:59.124Z,4.00
2023-02-01T15:50:27.312Z,4.00
2023-02-01T15:52:58.909Z,4.00
2023-02-01T15:55:40.888Z,4.00
2023-02-01T15:58:16.311Z,4.00
2023-02-01T16:00:48.263Z,4.00
2023-02-01T16:03:27.216Z,4.00
2023-02-01T16:05:59.674Z,4.00
2023-02-01T16:08:29.460Z,4.00
2023-02-01T16:11:21.629Z,4.10
2023-02-01T16:13:48.544Z,4.10
2023-02-01T16:16:15.441Z,4.10
2023-02-01T16:18:42.679Z,4.10
2023-02-01T16:21:10.136Z,4.10
2023-02-01T16:23:37.660Z,4.10
2023-02-01T16:26:05.021Z,4.10
2023-02-01T16:28:31.712Z,4.00
2023-02-01T16:30:59.004Z,4.00
2023-02-01T16:33:25.945Z,3.90
2023-02-01T16:35:56.687Z,3.80
2023-02-01T16:38:24.675Z,3.80
2023-02-01T16:40:52.014Z,3.80
2023-02-01T16:43:22.513Z,3.80
2023-02-01T16:45:52.440Z,3.80
2023-02-01T16:48:28.510Z,3.90
2023-02-01T16:50:58.020Z,3.80
2023-02-01T16:53:28.520Z,3.90
2023-02-01T16:55:55.483Z,3.90
2023-02-01T16:58:22.621Z,3.90
2023-02-01T17:00:49.825Z,3.90
2023-02-01T17:03:17.461Z,3.80
2023-02-01T17:05:53.009Z,3.90
2023-02-01T17:08:28.570Z,3.90
2023-02-01T17:10:55.267Z,3.90
2023-02-01T17:13:21.987Z,4.00
2023-02-01T17:16:01.759Z,4.00
2023-02-01T17:18:33.508Z,4.00
2023-02-01T17:21:01.403Z,3.90
2023-02-01T17:23:29.508Z,3.90
2023-02-01T17:25:57.519Z,3.80
2023-02-01T17:28:24.938Z,3.90
2023-02-01T17:30:51.656Z,4.00
2023-02-01T17:33:35.574Z,3.80
2023-02-01T17:36:05.778Z,3.70
2023-02-01T17:38:32.945Z,3.70
2023-02-01T17:40:59.866Z,3.70
2023-02-01T17:43:26.769Z,3.80
2023-02-01T17:45:57.437Z,3.90
2023-02-01T17:48:24.785Z,3.90
2023-02-01T17:50:58.448Z,3.90
2023-02-01T17:53:26.969Z,3.90
2023-02-01T17:55:53.877Z,3.90
2023-02-01T17:58:21.508Z,3.90
2023-02-01T18:00:49.575Z,3.90
2023-02-01T18:03:27.590Z,4.00
2023-02-01T18:05:56.809Z,3.90
2023-02-01T18:08:27.321Z,3.80
2023-02-01T18:11:00.890Z,3.80
2023-02-01T18:13:29.011Z,3.80
2023-02-01T18:15:56.007Z,3.90
2023-02-01T18:18:22.711Z,3.90
2023-02-01T18:20:49.971Z,4.00
2023-02-01T18:23:22.285Z,4.00
2023-02-01T18:25:49.770Z,4.00
2023-02-01T18:28:17.402Z,4.00
2023-02-01T18:30:46.721Z,4.10
2023-02-01T18:33:15.400Z,4.10
2023-02-01T18:35:42.456Z,4.10
2023-02-01T18:38:10.173Z,4.10
2023-02-01T18:40:41.958Z,4.10
2023-02-01T18:43:11.239Z,4.20
2023-02-01T18:45:42.188Z,4.20
2023-02-01T18:48:10.954Z,4.20
2023-02-01T18:50:40.442Z,4.20
2023-02-01T18:53:16.105Z,4.20
2023-02-01T18:55:42.874Z,4.30
2023-02-01T18:58:13.618Z,4.30
2023-02-01T19:00:40.341Z,4.30
2023-02-01T19:03:07.015Z,4.30
2023-02-01T19:05:33.952Z,4.20
2023-02-01T19:08:00.619Z,4.20
2023-02-01T19:10:27.824Z,4.20
2023-02-01T19:12:58.469Z,4.10
2023-02-01T19:15:26.336Z,4.10
2023-02-01T19:17:55.202Z,4.10
2023-02-01T19:20:24.563Z,4.10
2023-02-01T19:22:51.849Z,4.10
2023-02-01T19:25:24.030Z,4.10
2023-02-01T19:27:52.339Z,4.10
2023-02-01T19:30:20.009Z,4.10
2023-02-01T19:32:47.422Z,4.10
2023-02-01T19:35:17.017Z,4.10
2023-02-01T19:37:43.795Z,4.10
2023-02-01T19:40:13.295Z,4.20
2023-02-01T19:42:40.450Z,4.10
2023-02-01T19:45:08.680Z,4.20
2023-02-01T19:47:35.574Z,4.10
2023-02-01T19:50:06.898Z,4.10
2023-02-01T19:52:36.837Z,4.20
2023-02-01T19:55:05.057Z,4.20
2023-02-01T19:57:32.211Z,4.20
2023-02-01T19:59:58.896Z,4.30
2023-02-01T20:02:27.771Z,4.20
2023-02-01T20:04:54.872Z,4.20
2023-02-01T20:07:21.948Z,4.30
2023-02-01T20:09:48.654Z,4.30
2023-02-01T20:12:15.441Z,4.30
2023-02-01T20:14:42.140Z,4.30
2023-02-01T20:17:17.641Z,4.40
2023-02-01T20:19:44.492Z,4.40
2023-02-01T20:22:11.306Z,4.40
2023-02-01T20:24:38.752Z,4.40
2023-02-01T20:27:07.131Z,4.40
2023-02-01T20:29:33.911Z,4.50
2023-02-01T20:32:00.718Z,4.40
2023-02-01T20:34:27.358Z,4.40
2023-02-01T20:36:54.029Z,4.40
2023-02-01T20:39:20.793Z,4.40
2023-02-01T20:41:47.529Z,4.40
2023-02-01T20:44:14.270Z,4.50
2023-02-01T20:46:40.910Z,4.50
2023-02-01T20:49:07.686Z,4.40
2023-02-01T20:51:34.396Z,4.50
2023-02-01T20:54:01.193Z,4.40
2023-02-01T20:56:27.910Z,4.60
2023-02-01T20:59:02.830Z,4.40
2023-02-01T21:01:30.765Z,4.40
2023-02-01T21:03:57.535Z,4.40
2023-02-01T21:06:24.238Z,4.40
2023-02-01T21:08:50.880Z,4.40
2023-02-01T21:11:17.751Z,4.40
2023-02-01T21:13:50.402Z,4.50
2023-02-01T21:16:19.029Z,4.40
2023-02-01T21:18:50.520Z,4.40
2023-02-01T21:21:18.031Z,4.40
2023-02-01T21:23:45.165Z,4.40
2023-02-01T21:26:23.800Z,4.40
2023-02-01T21:28:52.072Z,4.40
2023-02-01T21:31:21.963Z,4.40
2023-02-01T21:33:49.517Z,4.30
2023-02-01T21:36:19.656Z,4.40
2023-02-01T21:38:51.469Z,4.40
2023-02-01T21:41:38.835Z,4.50
2023-02-01T21:44:06.075Z,4.30
2023-02-01T21:46:32.893Z,4.40
2023-02-01T21:49:03.928Z,4.40
2023-02-01T21:51:35.128Z,4.40
2023-02-01T21:54:02.150Z,4.40
2023-02-01T21:56:29.445Z,4.20
2023-02-01T21:58:56.245Z,4.10
2023-02-01T22:01:23.166Z,4.00
2023-02-01T22:03:49.851Z,4.00
2023-02-01T22:06:30.910Z,3.90
2023-02-01T22:08:58.726Z,3.90
2023-02-01T22:11:26.148Z,3.90
2023-02-01T22:13:52.841Z,3.90
2023-02-01T22:16:21.456Z,4.00
2023-02-01T22:18:50.084Z,3.90
2023-02-01T22:21:18.000Z,3.90
2023-02-01T22:23:44.685Z,4.00
2023-02-01T22:26:13.208Z,4.00
2023-02-01T22:28:40.306Z,4.00
2023-02-01T22:31:08.983Z,4.00
2023-02-01T22:33:35.783Z,3.90
2023-02-01T22:36:03.988Z,4.00
2023-02-01T22:38:35.285Z,4.00
2023-02-01T22:41:04.825Z,4.00
2023-02-01T22:43:32.448Z,4.10
2023-02-01T22:46:01.183Z,4.10
2023-02-01T22:48:30.083Z,4.00
2023-02-01T22:51:00.908Z,4.00
2023-02-01T22:53:29.306Z,4.00
2023-02-01T22:56:07.236Z,4.10
2023-02-01T22:58:37.458Z,4.00
2023-02-01T23:01:09.429Z,3.90
2023-02-01T23:03:36.937Z,3.90
2023-02-01T23:06:04.896Z,3.90
2023-02-01T23:08:33.558Z,3.90
2023-02-01T23:11:01.957Z,3.90
2023-02-01T23:13:29.125Z,3.90
2023-02-01T23:15:55.856Z,4.00
2023-02-01T23:18:22.591Z,3.90
2023-02-01T23:20:49.311Z,3.90
2023-02-01T23:23:15.975Z,3.90
2023-02-01T23:25:48.695Z,3.90
2023-02-01T23:28:16.357Z,3.90
2023-02-01T23:30:43.149Z,3.90
2023-02-01T23:33:09.853Z,4.00
2023-02-01T23:35:36.568Z,4.00
2023-02-01T23:38:03.263Z,4.00
2023-02-01T23:40:29.958Z,4.10
2023-02-01T23:43:15.606Z,4.10
2023-02-01T23:45:42.305Z,4.00
2023-02-01T23:48:08.917Z,4.00
2023-02-01T23:50:35.611Z,4.10
2023-02-01T23:53:02.267Z,4.10
2023-02-01T23:55:28.919Z,4.10
2023-02-01T23:57:55.568Z,4.10
